sensor_id;sensor_type;location;lat;lon;timestamp;pressure;altitude;pressure_sealevel;temperature;humidity
70589;BME280;58152;49.202;18.744;2023-04-30T00:01:55;97268.34;;;11.85;72.61
70589;BME280;58152;49.202;18.744;2023-04-30T00:04:20;97272.75;;;11.84;72.53
70589;BME280;58152;49.202;18.744;2023-04-30T00:06:46;97288.44;;;11.86;72.38
70589;BME280;58152;49.202;18.744;2023-04-30T00:09:11;97267.59;;;11.83;72.83
70589;BME280;58152;49.202;18.744;2023-04-30T00:11:37;97278.13;;;11.81;72.75
70589;BME280;58152;49.202;18.744;2023-04-30T00:14:02;97272.03;;;11.81;72.82
70589;BME280;58152;49.202;18.744;2023-04-30T00:16:28;97266.16;;;11.76;72.58
70589;BME280;58152;49.202;18.744;2023-04-30T00:18:53;97269.56;;;11.78;73.08
70589;BME280;58152;49.202;18.744;2023-04-30T00:21:19;97270.47;;;11.77;73.20
70589;BME280;58152;49.202;18.744;2023-04-30T00:23:44;97268.19;;;11.70;72.91
70589;BME280;58152;49.202;18.744;2023-04-30T00:26:10;97271.50;;;11.74;73.28
70589;BME280;58152;49.202;18.744;2023-04-30T00:28:35;97255.28;;;11.66;73.41
70589;BME280;58152;49.202;18.744;2023-04-30T00:31:01;97260.69;;;11.63;74.03
70589;BME280;58152;49.202;18.744;2023-04-30T00:33:26;97268.50;;;11.64;73.82
70589;BME280;58152;49.202;18.744;2023-04-30T00:35:52;97269.50;;;11.62;73.85
70589;BME280;58152;49.202;18.744;2023-04-30T00:38:17;97267.09;;;11.57;74.41
70589;BME280;58152;49.202;18.744;2023-04-30T00:40:43;97259.34;;;11.54;74.23
70589;BME280;58152;49.202;18.744;2023-04-30T00:43:11;97269.72;;;11.57;74.64
70589;BME280;58152;49.202;18.744;2023-04-30T00:45:36;97261.13;;;11.54;74.46
70589;BME280;58152;49.202;18.744;2023-04-30T00:48:02;97270.56;;;11.58;74.70
70589;BME280;58152;49.202;18.744;2023-04-30T00:50:28;97271.50;;;11.57;74.50
70589;BME280;58152;49.202;18.744;2023-04-30T00:52:54;97268.78;;;11.58;74.94
70589;BME280;58152;49.202;18.744;2023-04-30T00:55:19;97268.13;;;11.55;74.87
70589;BME280;58152;49.202;18.744;2023-04-30T00:57:45;97264.63;;;11.54;75.14
70589;BME280;58152;49.202;18.744;2023-04-30T01:00:11;97282.78;;;11.59;74.61
70589;BME280;58152;49.202;18.744;2023-04-30T01:02:38;97275.13;;;11.54;74.49
70589;BME280;58152;49.202;18.744;2023-04-30T01:05:03;97282.63;;;11.62;74.79
70589;BME280;58152;49.202;18.744;2023-04-30T01:07:30;97273.38;;;11.55;75.15
70589;BME280;58152;49.202;18.744;2023-04-30T01:09:56;97268.41;;;11.49;75.22
70589;BME280;58152;49.202;18.744;2023-04-30T01:15:35;97273.59;;;11.50;75.75
70589;BME280;58152;49.202;18.744;2023-04-30T01:18:15;97270.09;;;11.50;74.88
70589;BME280;58152;49.202;18.744;2023-04-30T01:20:53;97281.50;;;11.50;75.30
70589;BME280;58152;49.202;18.744;2023-04-30T01:28:24;97280.00;;;11.44;76.17
70589;BME280;58152;49.202;18.744;2023-04-30T01:30:49;97284.13;;;11.50;75.58
70589;BME280;58152;49.202;18.744;2023-04-30T01:33:15;97272.91;;;11.47;74.99
70589;BME280;58152;49.202;18.744;2023-04-30T01:44:33;97289.50;;;11.47;76.06
70589;BME280;58152;49.202;18.744;2023-04-30T01:47:11;97279.31;;;11.41;76.20
70589;BME280;58152;49.202;18.744;2023-04-30T01:50:04;97282.84;;;11.40;75.50
70589;BME280;58152;49.202;18.744;2023-04-30T01:53:01;97297.63;;;11.42;76.37
70589;BME280;58152;49.202;18.744;2023-04-30T01:55:35;97296.78;;;11.42;76.22
70589;BME280;58152;49.202;18.744;2023-04-30T01:58:04;97294.16;;;11.42;76.01
70589;BME280;58152;49.202;18.744;2023-04-30T02:00:31;97304.47;;;11.45;75.84
70589;BME280;58152;49.202;18.744;2023-04-30T02:02:57;97306.34;;;11.43;76.23
70589;BME280;58152;49.202;18.744;2023-04-30T02:05:23;97315.22;;;11.40;75.82
70589;BME280;58152;49.202;18.744;2023-04-30T02:07:50;97311.75;;;11.40;75.42
70589;BME280;58152;49.202;18.744;2023-04-30T02:10:17;97309.19;;;11.38;75.39
70589;BME280;58152;49.202;18.744;2023-04-30T02:12:42;97317.84;;;11.40;75.60
70589;BME280;58152;49.202;18.744;2023-04-30T02:15:08;97317.84;;;11.40;76.11
70589;BME280;58152;49.202;18.744;2023-04-30T02:17:34;97317.94;;;11.39;75.86
70589;BME280;58152;49.202;18.744;2023-04-30T02:20:00;97316.25;;;11.38;75.64
70589;BME280;58152;49.202;18.744;2023-04-30T02:22:26;97319.72;;;11.38;75.39
70589;BME280;58152;49.202;18.744;2023-04-30T02:24:53;97308.50;;;11.35;75.10
70589;BME280;58152;49.202;18.744;2023-04-30T02:27:22;97310.38;;;11.33;74.82
70589;BME280;58152;49.202;18.744;2023-04-30T02:29:47;97311.34;;;11.30;75.03
70589;BME280;58152;49.202;18.744;2023-04-30T02:32:13;97320.69;;;11.36;75.42
70589;BME280;58152;49.202;18.744;2023-04-30T02:34:39;97314.06;;;11.29;75.65
70589;BME280;58152;49.202;18.744;2023-04-30T02:37:05;97325.94;;;11.36;75.67
70589;BME280;58152;49.202;18.744;2023-04-30T02:39:31;97312.19;;;11.31;75.04
70589;BME280;58152;49.202;18.744;2023-04-30T02:41:56;97330.31;;;11.37;75.16
70589;BME280;58152;49.202;18.744;2023-04-30T02:44:22;97324.25;;;11.35;75.61
70589;BME280;58152;49.202;18.744;2023-04-30T02:46:48;97321.72;;;11.33;74.83
70589;BME280;58152;49.202;18.744;2023-04-30T02:49:13;97326.41;;;11.27;75.00
70589;BME280;58152;49.202;18.744;2023-04-30T02:51:39;97314.38;;;11.23;75.03
70589;BME280;58152;49.202;18.744;2023-04-30T02:54:05;97334.22;;;11.28;74.91
70589;BME280;58152;49.202;18.744;2023-04-30T02:56:30;97320.25;;;11.28;74.65
70589;BME280;58152;49.202;18.744;2023-04-30T02:58:55;97334.97;;;11.30;75.02
70589;BME280;58152;49.202;18.744;2023-04-30T03:01:21;97323.00;;;11.25;75.27
70589;BME280;58152;49.202;18.744;2023-04-30T03:03:46;97327.41;;;11.24;74.57
70589;BME280;58152;49.202;18.744;2023-04-30T03:06:12;97328.97;;;11.28;74.82
70589;BME280;58152;49.202;18.744;2023-04-30T03:08:37;97329.91;;;11.27;75.06
70589;BME280;58152;49.202;18.744;2023-04-30T03:11:02;97334.06;;;11.31;74.76
70589;BME280;58152;49.202;18.744;2023-04-30T03:13:28;97326.34;;;11.28;75.07
70589;BME280;58152;49.202;18.744;2023-04-30T03:16:00;97327.91;;;11.32;75.09
70589;BME280;58152;49.202;18.744;2023-04-30T03:18:27;97326.34;;;11.28;75.21
70589;BME280;58152;49.202;18.744;2023-04-30T03:20:53;97330.56;;;11.31;75.17
70589;BME280;58152;49.202;18.744;2023-04-30T03:23:18;97323.00;;;11.25;75.69
70589;BME280;58152;49.202;18.744;2023-04-30T03:25:44;97341.09;;;11.31;75.19
70589;BME280;58152;49.202;18.744;2023-04-30T03:28:09;97338.63;;;11.28;75.32
70589;BME280;58152;49.202;18.744;2023-04-30T03:30:35;97340.31;;;11.29;75.33
70589;BME280;58152;49.202;18.744;2023-04-30T03:33:00;97339.38;;;11.30;74.82
70589;BME280;58152;49.202;18.744;2023-04-30T03:35:26;97332.53;;;11.27;75.23
70589;BME280;58152;49.202;18.744;2023-04-30T03:37:51;97336.75;;;11.30;74.96
70589;BME280;58152;49.202;18.744;2023-04-30T03:40:17;97346.34;;;11.31;74.60
70589;BME280;58152;49.202;18.744;2023-04-30T03:42:42;97339.53;;;11.27;74.97
70589;BME280;58152;49.202;18.744;2023-04-30T03:45:10;97341.38;;;11.25;75.17
70589;BME280;58152;49.202;18.744;2023-04-30T03:47:35;97337.13;;;11.22;75.08
70589;BME280;58152;49.202;18.744;2023-04-30T03:50:02;97341.53;;;11.22;74.42
70589;BME280;58152;49.202;18.744;2023-04-30T03:52:28;97344.47;;;11.15;74.21
70589;BME280;58152;49.202;18.744;2023-04-30T03:54:53;97347.72;;;11.20;74.23
70589;BME280;58152;49.202;18.744;2023-04-30T03:57:19;97352.88;;;11.22;74.25
70589;BME280;58152;49.202;18.744;2023-04-30T03:59:45;97343.31;;;11.21;74.30
70589;BME280;58152;49.202;18.744;2023-04-30T04:02:11;97353.81;;;11.21;74.75
70589;BME280;58152;49.202;18.744;2023-04-30T04:04:36;97350.34;;;11.20;74.81
70589;BME280;58152;49.202;18.744;2023-04-30T04:07:01;97364.25;;;11.23;74.66
70589;BME280;58152;49.202;18.744;2023-04-30T04:09:28;97362.47;;;11.23;74.72
70589;BME280;58152;49.202;18.744;2023-04-30T04:11:53;97366.88;;;11.23;74.89
70589;BME280;58152;49.202;18.744;2023-04-30T04:14:19;97378.06;;;11.26;74.77
70589;BME280;58152;49.202;18.744;2023-04-30T04:16:45;97384.47;;;11.20;74.48
70589;BME280;58152;49.202;18.744;2023-04-30T04:19:11;97384.69;;;11.16;74.37
70589;BME280;58152;49.202;18.744;2023-04-30T04:21:37;97398.75;;;11.15;74.63
70589;BME280;58152;49.202;18.744;2023-04-30T04:24:03;97390.28;;;11.08;74.35
70589;BME280;58152;49.202;18.744;2023-04-30T04:26:36;97403.59;;;11.05;73.95
70589;BME280;58152;49.202;18.744;2023-04-30T04:29:04;97405.41;;;11.03;74.12
70589;BME280;58152;49.202;18.744;2023-04-30T04:31:30;97403.72;;;11.02;73.13
70589;BME280;58152;49.202;18.744;2023-04-30T04:33:58;97416.84;;;11.02;72.73
70589;BME280;58152;49.202;18.744;2023-04-30T04:36:25;97409.47;;;10.91;72.15
70589;BME280;58152;49.202;18.744;2023-04-30T04:38:52;97420.91;;;10.90;71.64
70589;BME280;58152;49.202;18.744;2023-04-30T04:41:18;97428.25;;;10.82;71.27
70589;BME280;58152;49.202;18.744;2023-04-30T04:43:43;97427.41;;;10.82;71.05
70589;BME280;58152;49.202;18.744;2023-04-30T04:46:09;97443.22;;;10.80;70.46
70589;BME280;58152;49.202;18.744;2023-04-30T04:48:34;97435.69;;;10.73;69.85
70589;BME280;58152;49.202;18.744;2023-04-30T04:51:00;97452.41;;;10.70;70.03
70589;BME280;58152;49.202;18.744;2023-04-30T04:53:25;97449.16;;;10.65;69.38
70589;BME280;58152;49.202;18.744;2023-04-30T04:55:51;97459.66;;;10.65;69.35
70589;BME280;58152;49.202;18.744;2023-04-30T04:58:16;97471.09;;;10.62;69.43
70589;BME280;58152;49.202;18.744;2023-04-30T05:00:43;97476.44;;;10.61;68.70
70589;BME280;58152;49.202;18.744;2023-04-30T05:03:08;97470.66;;;10.53;68.63
70589;BME280;58152;49.202;18.744;2023-04-30T05:05:34;97491.59;;;10.54;68.47
70589;BME280;58152;49.202;18.744;2023-04-30T05:07:59;97482.34;;;10.46;68.63
70589;BME280;58152;49.202;18.744;2023-04-30T05:10:25;97498.81;;;10.49;68.17
70589;BME280;58152;49.202;18.744;2023-04-30T05:12:50;97494.84;;;10.39;68.63
70589;BME280;58152;49.202;18.744;2023-04-30T05:15:16;97502.81;;;10.37;68.15
70589;BME280;58152;49.202;18.744;2023-04-30T05:17:41;97513.22;;;10.39;67.72
70589;BME280;58152;49.202;18.744;2023-04-30T05:20:07;97511.44;;;10.39;68.19
70589;BME280;58152;49.202;18.744;2023-04-30T05:22:33;97513.22;;;10.39;67.78
70589;BME280;58152;49.202;18.744;2023-04-30T05:24:58;97522.09;;;10.36;67.69
70589;BME280;58152;49.202;18.744;2023-04-30T05:27:24;97531.56;;;10.39;67.80
70589;BME280;58152;49.202;18.744;2023-04-30T05:29:50;97535.78;;;10.43;67.75
70589;BME280;58152;49.202;18.744;2023-04-30T05:32:15;97541.16;;;10.40;67.29
70589;BME280;58152;49.202;18.744;2023-04-30T05:34:41;97548.31;;;10.36;66.73
70589;BME280;58152;49.202;18.744;2023-04-30T05:37:06;97541.47;;;10.32;67.11
70589;BME280;58152;49.202;18.744;2023-04-30T05:39:32;97540.06;;;10.24;66.56
70589;BME280;58152;49.202;18.744;2023-04-30T05:41:57;97549.59;;;10.26;66.57
70589;BME280;58152;49.202;18.744;2023-04-30T05:44:23;97541.94;;;10.20;66.58
70589;BME280;58152;49.202;18.744;2023-04-30T05:46:48;97545.41;;;10.21;66.42
70589;BME280;58152;49.202;18.744;2023-04-30T05:49:13;97547.31;;;10.17;66.06
70589;BME280;58152;49.202;18.744;2023-04-30T05:51:39;97548.22;;;10.16;65.90
70589;BME280;58152;49.202;18.744;2023-04-30T05:54:04;97551.69;;;10.16;66.37
70589;BME280;58152;49.202;18.744;2023-04-30T05:56:30;97569.94;;;10.19;66.22
70589;BME280;58152;49.202;18.744;2023-04-30T05:58:55;97582.00;;;10.24;66.23
70589;BME280;58152;49.202;18.744;2023-04-30T06:01:21;97583.91;;;10.20;66.09
70589;BME280;58152;49.202;18.744;2023-04-30T06:03:47;97570.31;;;10.10;64.96
70589;BME280;58152;49.202;18.744;2023-04-30T06:06:13;97587.81;;;10.10;64.88
70589;BME280;58152;49.202;18.744;2023-04-30T06:08:38;97576.66;;;10.05;64.45
70589;BME280;58152;49.202;18.744;2023-04-30T06:11:08;97582.66;;;10.07;64.64
70589;BME280;58152;49.202;18.744;2023-04-30T06:13:35;97587.00;;;10.08;64.74
70589;BME280;58152;49.202;18.744;2023-04-30T06:16:00;97601.84;;;10.09;64.42
70589;BME280;58152;49.202;18.744;2023-04-30T06:18:26;97607.94;;;10.09;64.42
70589;BME280;58152;49.202;18.744;2023-04-30T06:20:52;97599.41;;;10.04;64.13
70589;BME280;58152;49.202;18.744;2023-04-30T06:23:17;97599.56;;;10.00;63.38
70589;BME280;58152;49.202;18.744;2023-04-30T06:25:44;97604.84;;;9.98;62.73
70589;BME280;58152;49.202;18.744;2023-04-30T06:28:09;97607.53;;;9.97;62.99
70589;BME280;58152;49.202;18.744;2023-04-30T06:30:35;97606.81;;;9.93;63.15
70589;BME280;58152;49.202;18.744;2023-04-30T06:33:01;97610.09;;;9.98;62.96
70589;BME280;58152;49.202;18.744;2023-04-30T06:35:30;97616.25;;;9.97;63.09
70589;BME280;58152;49.202;18.744;2023-04-30T06:37:55;97625.13;;;9.95;62.52
70589;BME280;58152;49.202;18.744;2023-04-30T06:40:20;97612.19;;;9.90;62.92
70589;BME280;58152;49.202;18.744;2023-04-30T06:42:46;97622.66;;;9.90;62.69
70589;BME280;58152;49.202;18.744;2023-04-30T06:45:11;97621.69;;;9.92;62.97
70589;BME280;58152;49.202;18.744;2023-04-30T06:47:39;97626.81;;;9.96;62.42
70589;BME280;58152;49.202;18.744;2023-04-30T06:50:07;97627.56;;;9.99;62.71
70589;BME280;58152;49.202;18.744;2023-04-30T06:52:33;97633.50;;;10.03;62.95
70589;BME280;58152;49.202;18.744;2023-04-30T06:54:59;97629.84;;;10.07;63.18
70589;BME280;58152;49.202;18.744;2023-04-30T06:57:25;97631.81;;;10.02;62.62
70589;BME280;58152;49.202;18.744;2023-04-30T06:59:51;97644.66;;;10.08;62.82
70589;BME280;58152;49.202;18.744;2023-04-30T07:02:17;97643.81;;;10.07;62.83
70589;BME280;58152;49.202;18.744;2023-04-30T07:04:42;97644.66;;;10.08;62.57
70589;BME280;58152;49.202;18.744;2023-04-30T07:07:08;97647.25;;;10.09;62.52
70589;BME280;58152;49.202;18.744;2023-04-30T07:09:33;97645.47;;;10.10;62.16
70589;BME280;58152;49.202;18.744;2023-04-30T07:11:59;97644.00;;;10.03;61.61
70589;BME280;58152;49.202;18.744;2023-04-30T07:14:34;97641.19;;;10.07;61.63
70589;BME280;58152;49.202;18.744;2023-04-30T07:16:59;97637.88;;;10.04;61.83
70589;BME280;58152;49.202;18.744;2023-04-30T07:19:25;97643.81;;;10.07;61.77
70589;BME280;58152;49.202;18.744;2023-04-30T07:21:51;97653.09;;;10.16;62.29
70589;BME280;58152;49.202;18.744;2023-04-30T07:24:16;97647.84;;;10.16;62.45
70589;BME280;58152;49.202;18.744;2023-04-30T07:26:42;97659.16;;;10.18;62.49
70589;BME280;58152;49.202;18.744;2023-04-30T07:29:07;97649.38;;;10.22;62.10
70589;BME280;58152;49.202;18.744;2023-04-30T07:31:33;97658.34;;;10.16;62.36
70589;BME280;58152;49.202;18.744;2023-04-30T07:33:58;97668.63;;;10.22;62.17
70589;BME280;58152;49.202;18.744;2023-04-30T07:36:33;97665.09;;;10.22;62.51
70589;BME280;58152;49.202;18.744;2023-04-30T07:39:10;97656.53;;;10.18;62.58
70589;BME280;58152;49.202;18.744;2023-04-30T07:41:36;97648.53;;;10.21;62.89
70589;BME280;58152;49.202;18.744;2023-04-30T07:44:05;97666.00;;;10.22;62.39
70589;BME280;58152;49.202;18.744;2023-04-30T07:46:30;97653.00;;;10.19;62.02
70589;BME280;58152;49.202;18.744;2023-04-30T07:48:58;97669.19;;;10.30;62.18
70589;BME280;58152;49.202;18.744;2023-04-30T07:51:24;97673.53;;;10.31;62.49
70589;BME280;58152;49.202;18.744;2023-04-30T07:53:51;97670.59;;;10.39;62.57
70589;BME280;58152;49.202;18.744;2023-04-30T07:56:17;97666.16;;;10.41;62.62
70589;BME280;58152;49.202;18.744;2023-04-30T07:58:51;97661.75;;;10.41;62.30
70589;BME280;58152;49.202;18.744;2023-04-30T08:01:17;97676.47;;;10.46;61.00
70589;BME280;58152;49.202;18.744;2023-04-30T08:03:42;97669.44;;;10.46;61.39
70589;BME280;58152;49.202;18.744;2023-04-30T08:06:08;97664.13;;;10.48;61.04
70589;BME280;58152;49.202;18.744;2023-04-30T08:08:33;97681.34;;;10.55;61.32
70589;BME280;58152;49.202;18.744;2023-04-30T08:10:59;97671.81;;;10.52;60.65
70589;BME280;58152;49.202;18.744;2023-04-30T08:13:24;97670.88;;;10.53;60.03
70589;BME280;58152;49.202;18.744;2023-04-30T08:15:49;97680.13;;;10.63;60.55
70589;BME280;58152;49.202;18.744;2023-04-30T08:18:15;97678.19;;;10.67;60.27
70589;BME280;58152;49.202;18.744;2023-04-30T08:20:43;97682.38;;;10.73;59.88
70589;BME280;58152;49.202;18.744;2023-04-30T08:23:09;97683.81;;;10.80;60.30
70589;BME280;58152;49.202;18.744;2023-04-30T08:25:34;97679.22;;;10.85;60.27
70589;BME280;58152;49.202;18.744;2023-04-30T08:28:05;97673.13;;;10.84;59.67
70589;BME280;58152;49.202;18.744;2023-04-30T08:30:33;97669.47;;;10.88;59.61
70589;BME280;58152;49.202;18.744;2023-04-30T08:32:59;97670.84;;;10.97;60.66
70589;BME280;58152;49.202;18.744;2023-04-30T08:35:24;97660.28;;;10.99;60.12
70589;BME280;58152;49.202;18.744;2023-04-30T08:37:50;97660.88;;;11.05;60.30
70589;BME280;58152;49.202;18.744;2023-04-30T08:40:15;97675.06;;;11.22;60.41
70589;BME280;58152;49.202;18.744;2023-04-30T08:42:58;97668.03;;;11.22;60.16
70589;BME280;58152;49.202;18.744;2023-04-30T08:45:25;97672.97;;;11.30;60.04
70589;BME280;58152;49.202;18.744;2023-04-30T08:47:53;97669.28;;;11.34;59.25
70589;BME280;58152;49.202;18.744;2023-04-30T08:50:22;97657.59;;;11.41;59.20
70589;BME280;58152;49.202;18.744;2023-04-30T08:52:47;97675.72;;;11.47;59.92
70589;BME280;58152;49.202;18.744;2023-04-30T08:55:15;97680.66;;;11.55;59.60
70589;BME280;58152;49.202;18.744;2023-04-30T08:57:43;97676.03;;;11.60;59.89
70589;BME280;58152;49.202;18.744;2023-04-30T09:00:09;97670.78;;;11.60;59.45
70589;BME280;58152;49.202;18.744;2023-04-30T09:02:39;97671.22;;;11.69;58.82
70589;BME280;58152;49.202;18.744;2023-04-30T09:05:10;97671.44;;;11.65;58.41
70589;BME280;58152;49.202;18.744;2023-04-30T09:07:39;97671.34;;;11.66;58.36
70589;BME280;58152;49.202;18.744;2023-04-30T09:10:19;97675.84;;;11.64;58.69
70589;BME280;58152;49.202;18.744;2023-04-30T09:13:08;97675.44;;;11.74;58.58
70589;BME280;58152;49.202;18.744;2023-04-30T09:15:35;97679.66;;;11.76;58.81
70589;BME280;58152;49.202;18.744;2023-04-30T09:18:15;97670.84;;;11.77;57.88
70589;BME280;58152;49.202;18.744;2023-04-30T09:20:59;97674.22;;;11.81;57.58
70589;BME280;58152;49.202;18.744;2023-04-30T09:23:28;97670.81;;;11.79;57.99
70589;BME280;58152;49.202;18.744;2023-04-30T09:25:54;97672.50;;;11.80;57.46
70589;BME280;58152;49.202;18.744;2023-04-30T09:28:22;97680.53;;;11.77;57.24
70589;BME280;58152;49.202;18.744;2023-04-30T09:30:50;97680.31;;;11.81;56.99
70589;BME280;58152;49.202;18.744;2023-04-30T09:33:16;97675.22;;;11.78;57.14
70589;BME280;58152;49.202;18.744;2023-04-30T09:35:41;97685.47;;;11.84;57.33
70589;BME280;58152;49.202;18.744;2023-04-30T09:38:30;97686.19;;;11.88;56.67
70589;BME280;58152;49.202;18.744;2023-04-30T09:41:00;97685.41;;;11.86;57.68
70589;BME280;58152;49.202;18.744;2023-04-30T09:43:27;97693.47;;;11.81;56.88
70589;BME280;58152;49.202;18.744;2023-04-30T09:45:53;97689.69;;;11.88;57.06
70589;BME280;58152;49.202;18.744;2023-04-30T09:48:22;97688.00;;;12.06;57.22
70589;BME280;58152;49.202;18.744;2023-04-30T09:50:49;97677.03;;;12.15;57.07
70589;BME280;58152;49.202;18.744;2023-04-30T09:53:17;97682.13;;;12.18;56.31
70589;BME280;58152;49.202;18.744;2023-04-30T09:55:48;97672.50;;;12.19;56.57
70589;BME280;58152;49.202;18.744;2023-04-30T09:58:25;97660.63;;;12.10;54.64
70589;BME280;58152;49.202;18.744;2023-04-30T10:00:52;97664.38;;;12.05;55.78
70589;BME280;58152;49.202;18.744;2023-04-30T10:03:21;97668.94;;;12.01;55.88
70589;BME280;58152;49.202;18.744;2023-04-30T10:05:50;97664.59;;;12.00;56.51
70589;BME280;58152;49.202;18.744;2023-04-30T10:12:15;97678.19;;;12.10;54.75
70589;BME280;58152;49.202;18.744;2023-04-30T10:14:51;97665.03;;;12.10;55.44
70589;BME280;58152;49.202;18.744;2023-04-30T10:18:04;97674.34;;;12.17;54.75
70589;BME280;58152;49.202;18.744;2023-04-30T10:21:15;97682.13;;;12.18;55.04
70589;BME280;58152;49.202;18.744;2023-04-30T10:23:52;97667.28;;;12.17;56.44
70589;BME280;58152;49.202;18.744;2023-04-30T10:26:21;97653.28;;;12.17;55.81
70589;BME280;58152;49.202;18.744;2023-04-30T10:33:06;97663.03;;;12.15;53.77
70589;BME280;58152;49.202;18.744;2023-04-30T10:35:56;97656.13;;;12.12;54.98
70589;BME280;58152;49.202;18.744;2023-04-30T10:38:54;97656.25;;;12.09;55.29
70589;BME280;58152;49.202;18.744;2023-04-30T10:41:48;97666.09;;;12.06;54.75
70589;BME280;58152;49.202;18.744;2023-04-30T10:44:45;97667.88;;;12.05;53.46
70589;BME280;58152;49.202;18.744;2023-04-30T10:47:34;97674.84;;;12.06;54.85
70589;BME280;58152;49.202;18.744;2023-04-30T10:59:50;97660.63;;;12.29;55.63
70589;BME280;58152;49.202;18.744;2023-04-30T11:02:16;97654.13;;;12.36;55.76
70589;BME280;58152;49.202;18.744;2023-04-30T11:09:17;97668.19;;;12.54;54.18
70589;BME280;58152;49.202;18.744;2023-04-30T11:15:15;97646.00;;;12.41;54.57
70589;BME280;58152;49.202;18.744;2023-04-30T11:18:01;97642.69;;;12.37;54.78
70589;BME280;58152;49.202;18.744;2023-04-30T11:20:29;97649.72;;;12.37;54.36
70589;BME280;58152;49.202;18.744;2023-04-30T11:23:35;97661.03;;;12.39;53.29
70589;BME280;58152;49.202;18.744;2023-04-30T11:26:23;97643.53;;;12.38;54.00
70589;BME280;58152;49.202;18.744;2023-04-30T11:28:57;97655.53;;;12.43;54.65
70589;BME280;58152;49.202;18.744;2023-04-30T11:31:34;97649.34;;;12.44;54.36
70589;BME280;58152;49.202;18.744;2023-04-30T11:34:24;97662.28;;;12.49;53.96
70589;BME280;58152;49.202;18.744;2023-04-30T11:37:05;97667.31;;;12.54;54.41
70589;BME280;58152;49.202;18.744;2023-04-30T11:39:59;97662.47;;;12.63;54.07
70589;BME280;58152;49.202;18.744;2023-04-30T11:42:29;97658.28;;;12.59;53.95
70589;BME280;58152;49.202;18.744;2023-04-30T11:45:12;97675.50;;;12.66;53.83
70589;BME280;58152;49.202;18.744;2023-04-30T11:48:04;97659.84;;;12.63;53.54
70589;BME280;58152;49.202;18.744;2023-04-30T11:50:52;97660.63;;;12.83;53.73
70589;BME280;58152;49.202;18.744;2023-04-30T11:53:27;97652.06;;;13.14;53.95
70589;BME280;58152;49.202;18.744;2023-04-30T11:56:24;97658.88;;;13.53;53.63
70589;BME280;58152;49.202;18.744;2023-04-30T11:59:17;97662.28;;;13.55;53.15
70589;BME280;58152;49.202;18.744;2023-04-30T12:05:28;97659.63;;;13.55;53.43
70589;BME280;58152;49.202;18.744;2023-04-30T12:08:24;97658.28;;;13.47;52.38
70589;BME280;58152;49.202;18.744;2023-04-30T12:11:26;97659.41;;;13.42;51.72
70589;BME280;58152;49.202;18.744;2023-04-30T12:14:03;97650.91;;;13.37;53.23
70589;BME280;58152;49.202;18.744;2023-04-30T12:16:49;97647.41;;;13.36;52.38
70589;BME280;58152;49.202;18.744;2023-04-30T12:19:47;97652.31;;;13.44;51.89
70589;BME280;58152;49.202;18.744;2023-04-30T12:29:27;97648.31;;;13.70;50.33
70589;BME280;58152;49.202;18.744;2023-04-30T12:35:46;97621.31;;;13.65;50.40
70589;BME280;58152;49.202;18.744;2023-04-30T12:38:23;97627.22;;;13.70;51.48
70589;BME280;58152;49.202;18.744;2023-04-30T12:40:48;97626.19;;;13.72;51.47
70589;BME280;58152;49.202;18.744;2023-04-30T12:43:16;97629.50;;;13.76;51.32
70589;BME280;58152;49.202;18.744;2023-04-30T12:45:50;97632.09;;;13.93;51.02
70589;BME280;58152;49.202;18.744;2023-04-30T12:48:16;97621.88;;;14.03;50.72
70589;BME280;58152;49.202;18.744;2023-04-30T12:50:57;97623.75;;;14.33;49.83
70589;BME280;58152;49.202;18.744;2023-04-30T12:53:27;97614.44;;;14.73;50.07
70589;BME280;58152;49.202;18.744;2023-04-30T12:56:06;97610.94;;;15.03;48.24
70589;BME280;58152;49.202;18.744;2023-04-30T12:58:35;97611.13;;;15.58;48.77
70589;BME280;58152;49.202;18.744;2023-04-30T13:01:01;97605.66;;;16.04;48.26
70589;BME280;58152;49.202;18.744;2023-04-30T13:03:26;97601.97;;;16.34;47.57
70589;BME280;58152;49.202;18.744;2023-04-30T13:05:52;97610.59;;;16.64;47.69
70589;BME280;58152;49.202;18.744;2023-04-30T13:08:19;97597.13;;;16.94;46.53
70589;BME280;58152;49.202;18.744;2023-04-30T13:10:45;97592.81;;;17.06;45.57
70589;BME280;58152;49.202;18.744;2023-04-30T13:13:15;97592.97;;;16.77;45.99
70589;BME280;58152;49.202;18.744;2023-04-30T13:15:41;97596.94;;;16.43;46.57
70589;BME280;58152;49.202;18.744;2023-04-30T13:18:08;97585.31;;;16.46;46.47
70589;BME280;58152;49.202;18.744;2023-04-30T13:20:35;97588.56;;;16.91;45.52
70589;BME280;58152;49.202;18.744;2023-04-30T13:23:01;97583.13;;;16.92;45.88
70589;BME280;58152;49.202;18.744;2023-04-30T13:25:26;97582.84;;;17.35;45.30
70589;BME280;58152;49.202;18.744;2023-04-30T13:27:52;97575.66;;;17.75;44.67
70589;BME280;58152;49.202;18.744;2023-04-30T13:30:17;97576.00;;;18.08;44.37
70589;BME280;58152;49.202;18.744;2023-04-30T13:32:43;97578.47;;;17.72;44.21
70589;BME280;58152;49.202;18.744;2023-04-30T13:35:09;97570.75;;;18.19;43.46
70589;BME280;58152;49.202;18.744;2023-04-30T13:37:35;97560.84;;;18.34;43.07
70589;BME280;58152;49.202;18.744;2023-04-30T13:40:01;97561.19;;;18.64;43.34
70589;BME280;58152;49.202;18.744;2023-04-30T13:42:31;97571.59;;;18.91;41.48
70589;BME280;58152;49.202;18.744;2023-04-30T13:44:56;97570.03;;;18.41;42.82
70589;BME280;58152;49.202;18.744;2023-04-30T13:47:22;97572.19;;;17.99;42.72
70589;BME280;58152;49.202;18.744;2023-04-30T13:49:52;97566.41;;;17.56;43.22
70589;BME280;58152;49.202;18.744;2023-04-30T13:52:19;97573.31;;;17.33;43.46
70589;BME280;58152;49.202;18.744;2023-04-30T13:54:48;97565.22;;;17.09;43.66
70589;BME280;58152;49.202;18.744;2023-04-30T13:57:13;97565.31;;;16.94;43.96
70589;BME280;58152;49.202;18.744;2023-04-30T13:59:39;97570.50;;;16.83;43.79